createdAt,value
2022-10-12T00:01:48.863Z,51.90
2022-10-12T00:04:15.439Z,51.90
2022-10-12T00:06:41.919Z,51.90
2022-10-12T00:09:08.414Z,51.80
2022-10-12T00:11:34.884Z,51.80
2022-10-12T00:14:01.379Z,51.80
2022-10-12T00:16:27.846Z,51.80
2022-10-12T00:18:54.346Z,51.80
2022-10-12T00:21:20.815Z,51.70
2022-10-12T00:23:47.295Z,51.70
2022-10-12T00:26:13.786Z,51.70
2022-10-12T00:28:40.354Z,51.80
2022-10-12T00:31:06.902Z,51.60
2022-10-12T00:33:33.363Z,51.70
2022-10-12T00:35:59.841Z,51.50
2022-10-12T00:38:26.316Z,51.50
2022-10-12T00:40:52.816Z,51.40
2022-10-12T00:43:19.279Z,51.40
2022-10-12T00:45:45.765Z,51.40
2022-10-12T00:48:12.245Z,51.30
2022-10-12T00:50:38.725Z,51.30
2022-10-12T00:53:05.201Z,51.40
2022-10-12T00:55:31.686Z,51.30
2022-10-12T00:57:58.148Z,51.20
2022-10-12T01:00:24.668Z,51.40
2022-10-12T01:02:51.123Z,51.10
2022-10-12T01:05:17.598Z,51.50
2022-10-12T01:07:44.078Z,50.90
2022-10-12T01:10:10.545Z,50.90
2022-10-12T01:12:37.016Z,50.90
2022-10-12T01:15:03.506Z,51.20
2022-10-12T01:17:29.987Z,50.90
2022-10-12T01:19:57.339Z,50.70
2022-10-12T01:22:23.906Z,51.00
2022-10-12T01:24:50.421Z,50.80
2022-10-12T01:27:16.910Z,50.60
2022-10-12T01:29:43.378Z,50.60
2022-10-12T01:32:09.858Z,50.70
2022-10-12T01:34:36.343Z,50.60
2022-10-12T01:37:02.824Z,50.70
2022-10-12T01:39:29.311Z,50.50
2022-10-12T01:41:55.775Z,50.30
2022-10-12T01:44:22.274Z,50.30
2022-10-12T01:46:48.749Z,50.40
2022-10-12T01:49:15.224Z,50.30
2022-10-12T01:51:41.699Z,50.30
2022-10-12T01:54:08.170Z,50.30
2022-10-12T01:56:34.633Z,50.20
2022-10-12T01:59:01.123Z,50.20
2022-10-12T02:01:27.643Z,50.30
2022-10-12T02:03:54.159Z,50.20
2022-10-12T02:06:20.641Z,50.20
2022-10-12T02:08:47.118Z,50.20
2022-10-12T02:11:13.585Z,50.10
2022-10-12T02:13:40.054Z,50.10
2022-10-12T02:16:06.533Z,50.10
2022-10-12T02:18:32.996Z,50.00
2022-10-12T02:20:59.477Z,50.00
2022-10-12T02:23:25.950Z,50.00
2022-10-12T02:25:52.418Z,50.10
2022-10-12T02:28:18.970Z,50.00
2022-10-12T02:30:45.508Z,49.90
2022-10-12T02:33:11.968Z,49.90
2022-10-12T02:35:38.468Z,49.90
2022-10-12T02:38:04.946Z,49.80
2022-10-12T02:40:31.449Z,49.80
2022-10-12T02:43:09.811Z,49.80
2022-10-12T02:45:37.188Z,49.90
2022-10-12T02:48:03.668Z,49.80
2022-10-12T02:50:30.179Z,49.80
2022-10-12T02:52:56.656Z,49.70
2022-10-12T02:55:23.158Z,49.70
2022-10-12T02:57:49.632Z,49.60
2022-10-12T03:00:16.121Z,49.70
2022-10-12T03:02:42.579Z,49.60
2022-10-12T03:05:09.054Z,49.60
2022-10-12T03:07:35.775Z,49.60
2022-10-12T03:10:02.414Z,49.60
2022-10-12T03:12:28.871Z,49.60
2022-10-12T03:14:55.328Z,49.60
2022-10-12T03:17:21.805Z,49.50
2022-10-12T03:19:48.278Z,49.50
2022-10-12T03:22:14.750Z,49.40
2022-10-12T03:24:41.217Z,49.50
2022-10-12T03:27:07.694Z,49.50
2022-10-12T03:29:34.156Z,49.30
2022-10-12T03:32:00.640Z,49.40
2022-10-12T03:34:27.107Z,49.30
2022-10-12T03:36:53.541Z,49.30
2022-10-12T03:39:20.026Z,49.30
2022-10-12T03:41:46.502Z,49.30
2022-10-12T03:44:12.971Z,49.30
2022-10-12T03:46:39.456Z,49.20
2022-10-12T03:49:05.923Z,49.40
2022-10-12T03:51:32.392Z,49.20
2022-10-12T03:53:58.845Z,49.10
2022-10-12T03:56:25.319Z,49.10
2022-10-12T03:58:51.793Z,49.20
2022-10-12T04:01:18.352Z,49.20
2022-10-12T04:03:44.869Z,49.20
2022-10-12T04:06:11.349Z,49.10
2022-10-12T04:08:40.156Z,49.00
2022-10-12T04:11:06.826Z,49.10
2022-10-12T04:13:33.324Z,49.00
2022-10-12T04:15:59.810Z,49.10
2022-10-12T04:18:26.294Z,49.10
2022-10-12T04:20:52.773Z,49.10
2022-10-12T04:23:19.255Z,49.10
2022-10-12T04:25:45.718Z,48.90
2022-10-12T04:28:12.225Z,49.10
2022-10-12T04:30:38.716Z,49.00
2022-10-12T04:33:05.182Z,49.00
2022-10-12T04:35:31.675Z,49.00
2022-10-12T04:37:58.152Z,49.10
2022-10-12T04:40:24.660Z,48.90
2022-10-12T04:42:51.147Z,49.00
2022-10-12T04:45:17.624Z,49.00
2022-10-12T04:47:44.106Z,48.80
2022-10-12T04:50:10.577Z,48.90
2022-10-12T04:52:37.042Z,48.90
2022-10-12T04:55:03.530Z,48.90
2022-10-12T04:57:30.018Z,48.90
2022-10-12T04:59:56.485Z,48.90
2022-10-12T05:02:22.962Z,48.90
2022-10-12T05:04:49.452Z,48.80
2022-10-12T05:07:15.935Z,48.90
2022-10-12T05:09:42.408Z,48.80
2022-10-12T05:12:08.886Z,48.70
2022-10-12T05:14:36.309Z,48.70
2022-10-12T05:17:02.844Z,48.80
2022-10-12T05:19:29.299Z,48.80
2022-10-12T05:21:55.763Z,48.80
2022-10-12T05:24:22.221Z,48.70
2022-10-12T05:26:48.715Z,48.60
2022-10-12T05:29:15.228Z,48.70
2022-10-12T05:31:41.705Z,48.60
2022-10-12T05:34:08.177Z,48.80
2022-10-12T05:36:34.654Z,48.60
2022-10-12T05:39:01.131Z,48.70
2022-10-12T05:41:27.609Z,48.60
2022-10-12T05:43:54.083Z,48.70
2022-10-12T05:46:20.551Z,48.60
2022-10-12T05:48:47.026Z,48.60
2022-10-12T05:51:13.519Z,48.40
2022-10-12T05:53:39.984Z,48.60
2022-10-12T05:56:06.458Z,48.50
2022-10-12T05:58:32.935Z,48.60
2022-10-12T06:00:59.423Z,48.50
2022-10-12T06:03:26.493Z,48.50
2022-10-12T06:05:53.198Z,48.50
2022-10-12T06:08:19.669Z,48.50
2022-10-12T06:10:46.203Z,48.40
2022-10-12T06:13:12.698Z,48.50
2022-10-12T06:15:39.194Z,48.60
2022-10-12T06:18:05.668Z,48.50
2022-10-12T06:20:32.173Z,48.40
2022-10-12T06:22:58.648Z,48.40
2022-10-12T06:25:25.138Z,48.40
2022-10-12T06:27:51.594Z,48.40
2022-10-12T06:30:18.070Z,48.40
2022-10-12T06:32:44.549Z,48.40
2022-10-12T06:35:11.040Z,48.20
2022-10-12T06:37:49.640Z,48.30
2022-10-12T06:40:16.894Z,48.50
2022-10-12T06:42:43.368Z,48.40
2022-10-12T06:45:09.863Z,48.30
2022-10-12T06:47:36.320Z,48.50
2022-10-12T06:50:02.821Z,48.40
2022-10-12T06:52:29.311Z,48.30
2022-10-12T06:54:55.780Z,48.30
2022-10-12T06:57:22.238Z,48.30
2022-10-12T06:59:48.692Z,48.20
2022-10-12T07:02:15.150Z,48.10
2022-10-12T07:04:41.631Z,48.10
2022-10-12T07:07:08.113Z,48.20
2022-10-12T07:09:34.590Z,48.90
2022-10-12T07:12:01.062Z,48.10
2022-10-12T07:14:27.544Z,48.30
2022-10-12T07:16:55.527Z,48.30
2022-10-12T07:19:22.176Z,48.30
2022-10-12T07:21:48.640Z,48.30
2022-10-12T07:24:15.121Z,48.40
2022-10-12T07:26:41.601Z,48.30
2022-10-12T07:29:08.076Z,48.40
2022-10-12T07:31:34.553Z,48.20
2022-10-12T07:34:01.021Z,48.30
2022-10-12T07:36:47.481Z,48.20
2022-10-12T07:39:13.924Z,48.30
2022-10-12T07:41:40.422Z,48.20
2022-10-12T07:44:06.910Z,48.30
2022-10-12T07:46:33.390Z,48.20
2022-10-12T07:48:59.867Z,48.40
2022-10-12T07:51:26.365Z,48.30
2022-10-12T07:53:52.838Z,48.30
2022-10-12T07:56:19.327Z,48.30
2022-10-12T07:58:45.790Z,48.40
2022-10-12T08:01:12.255Z,48.40
2022-10-12T08:03:38.725Z,48.30
2022-10-12T08:06:05.210Z,48.60
2022-10-12T08:08:31.686Z,48.50
2022-10-12T08:10:58.169Z,48.50
2022-10-12T08:13:24.648Z,48.70
2022-10-12T08:15:51.127Z,48.70
2022-10-12T08:18:17.611Z,48.90
2022-10-12T08:20:44.073Z,48.90
2022-10-12T08:23:10.542Z,48.90
2022-10-12T08:25:37.029Z,48.90
2022-10-12T08:28:03.517Z,48.90
2022-10-12T08:30:30.011Z,48.90
2022-10-12T08:32:56.472Z,49.20
2022-10-12T08:35:22.985Z,49.20
2022-10-12T08:37:49.455Z,49.20
2022-10-12T08:40:15.961Z,49.30
2022-10-12T08:42:42.423Z,49.30
2022-10-12T08:45:08.880Z,49.30
2022-10-12T08:47:35.352Z,49.30
2022-10-12T08:50:01.814Z,49.30
2022-10-12T08:52:28.288Z,49.30
2022-10-12T08:54:54.757Z,49.30
2022-10-12T08:57:21.238Z,49.30
2022-10-12T08:59:47.704Z,49.40
2022-10-12T09:02:14.222Z,49.30
2022-10-12T09:04:40.704Z,49.40
2022-10-12T09:07:07.180Z,49.50
2022-10-12T09:09:33.658Z,49.40
2022-10-12T09:12:00.148Z,49.40
2022-10-12T09:14:26.632Z,49.50
2022-10-12T09:16:53.229Z,49.30
2022-10-12T09:19:19.747Z,49.30
2022-10-12T09:21:46.239Z,49.30
2022-10-12T09:24:12.734Z,49.40
2022-10-12T09:26:39.220Z,49.60
2022-10-12T09:29:05.801Z,49.70
2022-10-12T09:31:32.352Z,50.00
2022-10-12T09:33:58.813Z,49.70
2022-10-12T09:36:25.304Z,49.80
2022-10-12T09:38:51.782Z,49.80
2022-10-12T09:41:18.271Z,50.00
2022-10-12T09:43:44.755Z,49.90
2022-10-12T09:46:11.241Z,49.90
2022-10-12T09:48:37.719Z,49.90
2022-10-12T09:51:04.212Z,50.00
2022-10-12T09:53:30.687Z,50.00
2022-10-12T09:55:57.175Z,50.00
2022-10-12T09:58:23.644Z,50.10
2022-10-12T10:00:50.148Z,50.10
2022-10-12T10:03:16.622Z,50.00
2022-10-12T10:05:43.112Z,50.20
2022-10-12T10:08:09.589Z,50.10
2022-10-12T10:10:36.071Z,50.30
2022-10-12T10:13:02.525Z,50.20
2022-10-12T10:15:29.010Z,50.30
2022-10-12T10:17:55.500Z,50.30
2022-10-12T10:20:22.001Z,50.30
2022-10-12T10:22:48.456Z,50.20
2022-10-12T10:25:14.958Z,50.30
2022-10-12T10:27:41.427Z,50.30
2022-10-12T10:30:29.232Z,50.30
2022-10-12T10:32:54.370Z,50.20
2022-10-12T10:35:21.991Z,50.20
2022-10-12T10:37:48.468Z,50.20
2022-10-12T10:40:15.244Z,50.30
2022-10-12T10:42:41.896Z,50.40
2022-10-12T10:45:08.398Z,50.40
2022-10-12T10:47:34.870Z,50.40
2022-10-12T10:50:01.367Z,50.40
2022-10-12T10:52:27.848Z,50.50
2022-10-12T10:54:54.316Z,50.60
2022-10-12T10:57:20.783Z,50.60
2022-10-12T10:59:47.247Z,50.60
2022-10-12T11:02:13.722Z,50.70
2022-10-12T11:04:40.198Z,50.60
2022-10-12T11:07:06.694Z,50.70
2022-10-12T11:09:33.154Z,50.80
2022-10-12T11:11:59.640Z,50.70
2022-10-12T11:14:26.132Z,50.80
2022-10-12T11:16:52.601Z,50.90
2022-10-12T11:19:19.069Z,50.90
2022-10-12T11:21:45.593Z,51.00
2022-10-12T11:24:12.071Z,51.00
2022-10-12T11:26:38.548Z,51.00
2022-10-12T11:29:05.025Z,51.00
2022-10-12T11:31:31.514Z,51.00
2022-10-12T11:33:57.998Z,51.00
2022-10-12T11:36:24.509Z,51.10
2022-10-12T11:38:50.990Z,51.80
2022-10-12T11:44:03.937Z,51.20
2022-10-12T11:46:30.421Z,51.10
2022-10-12T11:48:56.891Z,51.10
2022-10-12T11:51:23.389Z,51.10
2022-10-12T11:53:49.855Z,51.20
2022-10-12T11:56:16.348Z,51.20
2022-10-12T11:59:00.048Z,51.20
2022-10-12T12:01:27.362Z,51.20
2022-10-12T12:03:53.887Z,51.20
2022-10-12T12:06:20.392Z,51.20
2022-10-12T12:08:46.860Z,51.20
2022-10-12T12:11:13.330Z,51.30
2022-10-12T12:13:39.806Z,51.40
2022-10-12T12:16:06.313Z,51.30
2022-10-12T12:18:32.782Z,51.30
2022-10-12T12:20:59.286Z,51.40
2022-10-12T12:23:25.752Z,51.30
2022-10-12T12:25:52.239Z,51.30
2022-10-12T12:28:18.755Z,51.20
2022-10-12T12:30:45.242Z,51.30
2022-10-12T12:33:11.720Z,51.30
2022-10-12T12:35:38.201Z,51.40
2022-10-12T12:38:04.677Z,51.40
2022-10-12T12:40:31.154Z,51.40
2022-10-12T12:42:57.642Z,51.30
2022-10-12T12:45:24.122Z,51.40
2022-10-12T12:47:50.601Z,51.40
2022-10-12T12:50:17.083Z,51.40
2022-10-12T12:52:43.553Z,51.40
2022-10-12T12:55:10.030Z,51.30
2022-10-12T12:57:36.515Z,51.40
2022-10-12T13:00:02.995Z,51.40
2022-10-12T13:02:29.460Z,51.50
2022-10-12T13:04:55.930Z,51.50
2022-10-12T13:07:22.412Z,51.50
2022-10-12T13:09:48.889Z,51.50
2022-10-12T13:12:15.356Z,51.40
2022-10-12T13:14:41.823Z,51.50
2022-10-12T13:19:54.758Z,51.50
2022-10-12T13:22:21.242Z,51.50
2022-10-12T13:24:47.731Z,51.40
2022-10-12T13:27:14.220Z,51.40
2022-10-12T13:29:40.684Z,51.60
2022-10-12T13:32:07.162Z,51.50
2022-10-12T13:34:33.630Z,51.50
2022-10-12T13:37:00.129Z,51.60
2022-10-12T13:39:26.617Z,51.50
2022-10-12T13:41:53.079Z,51.50
2022-10-12T13:44:19.544Z,51.50
2022-10-12T13:46:46.010Z,51.50
2022-10-12T13:49:12.480Z,51.70
2022-10-12T13:51:38.966Z,51.60
2022-10-12T13:54:05.450Z,51.60
2022-10-12T13:56:31.935Z,51.60
2022-10-12T13:58:58.435Z,51.70
2022-10-12T14:01:24.967Z,51.60
2022-10-12T14:03:51.479Z,51.70
2022-10-12T14:06:17.972Z,51.70
2022-10-12T14:08:44.465Z,51.80
2022-10-12T14:11:10.945Z,51.70
2022-10-12T14:13:37.420Z,51.70
2022-10-12T14:16:03.888Z,51.70
2022-10-12T14:18:30.367Z,51.70
2022-10-12T14:20:56.836Z,51.70
2022-10-12T14:23:23.341Z,51.70
2022-10-12T14:25:49.806Z,51.80
2022-10-12T14:28:16.342Z,51.80
2022-10-12T14:30:42.829Z,51.70
2022-10-12T14:33:09.331Z,51.80
2022-10-12T14:35:35.794Z,51.90
2022-10-12T14:38:02.546Z,51.90
2022-10-12T14:40:29.050Z,51.80
2022-10-12T14:42:55.555Z,51.90
2022-10-12T14:45:22.021Z,51.90
2022-10-12T14:47:49.146Z,51.90
2022-10-12T14:50:15.690Z,52.00
2022-10-12T14:52:42.162Z,52.10
2022-10-12T14:55:08.640Z,51.90
2022-10-12T14:57:35.114Z,52.00
2022-10-12T15:00:01.601Z,51.90
2022-10-12T15:02:28.083Z,52.00
2022-10-12T15:04:54.555Z,52.10
2022-10-12T15:07:21.037Z,52.10
2022-10-12T15:09:47.508Z,52.10
2022-10-12T15:12:13.990Z,52.10
2022-10-12T15:14:40.458Z,52.10
2022-10-12T15:17:06.924Z,52.10
2022-10-12T15:19:33.389Z,52.10
2022-10-12T15:21:59.876Z,52.10
2022-10-12T15:24:26.339Z,52.10
2022-10-12T15:26:52.801Z,52.10
2022-10-12T15:29:19.284Z,52.10
2022-10-12T15:31:48.988Z,52.20
2022-10-12T15:34:17.608Z,52.20
2022-10-12T15:36:44.096Z,52.30
2022-10-12T15:39:10.569Z,52.30
2022-10-12T15:41:37.032Z,52.30
2022-10-12T15:44:03.522Z,52.20
2022-10-12T15:46:29.982Z,52.30
2022-10-12T15:48:56.439Z,52.30
2022-10-12T15:51:22.907Z,52.30
2022-10-12T15:53:49.374Z,52.30
2022-10-12T15:56:15.842Z,52.40
2022-10-12T15:58:42.348Z,52.30
2022-10-12T16:01:08.859Z,52.30
2022-10-12T16:03:35.347Z,52.20
2022-10-12T16:06:01.818Z,52.30
2022-10-12T16:08:28.290Z,52.40
2022-10-12T16:10:54.748Z,52.30
2022-10-12T16:13:21.230Z,52.40
2022-10-12T16:15:47.699Z,52.40
2022-10-12T16:18:14.166Z,52.40
2022-10-12T16:20:40.628Z,52.40
2022-10-12T16:23:07.082Z,52.40
2022-10-12T16:25:33.554Z,52.40
2022-10-12T16:28:00.018Z,52.40
2022-10-12T16:30:26.501Z,52.40
2022-10-12T16:32:52.973Z,52.50
2022-10-12T16:35:19.450Z,52.60
2022-10-12T16:37:45.917Z,52.70
2022-10-12T16:40:12.389Z,52.50
2022-10-12T16:42:38.863Z,52.50
2022-10-12T16:45:05.331Z,52.50
2022-10-12T16:47:31.790Z,52.40
2022-10-12T16:49:58.286Z,52.50
2022-10-12T16:52:24.768Z,52.70
2022-10-12T16:54:51.279Z,52.60
2022-10-12T16:57:17.757Z,52.60
2022-10-12T16:59:44.260Z,52.70
2022-10-12T17:02:10.724Z,52.60
2022-10-12T17:04:37.227Z,52.60
2022-10-12T17:07:03.710Z,52.60
2022-10-12T17:09:30.195Z,52.70
2022-10-12T17:11:56.657Z,52.60
2022-10-12T17:14:23.136Z,52.70
2022-10-12T17:16:49.611Z,52.70
2022-10-12T17:19:16.076Z,52.70
2022-10-12T17:21:42.549Z,52.80
2022-10-12T17:24:09.046Z,52.70
2022-10-12T17:26:40.156Z,52.80
2022-10-12T17:29:07.623Z,52.70
2022-10-12T17:31:34.113Z,52.70
2022-10-12T17:34:00.616Z,52.60
2022-10-12T17:36:28.413Z,52.70
2022-10-12T17:38:55.136Z,52.80
2022-10-12T17:41:21.628Z,52.80
2022-10-12T17:43:48.117Z,52.80
2022-10-12T17:46:16.139Z,52.70
2022-10-12T17:48:45.449Z,52.80
2022-10-12T17:51:11.923Z,53.50
2022-10-12T17:53:38.416Z,52.80
2022-10-12T17:56:04.903Z,52.90
2022-10-12T17:58:31.386Z,52.90
2022-10-12T18:00:57.911Z,52.80
2022-10-12T18:03:25.783Z,52.80
2022-10-12T18:05:52.376Z,52.90
2022-10-12T18:08:18.845Z,52.90
2022-10-12T18:10:45.313Z,52.90
2022-10-12T18:13:11.797Z,52.90
2022-10-12T18:15:38.254Z,52.80
2022-10-12T18:18:04.726Z,52.80
2022-10-12T18:20:31.210Z,52.90
2022-10-12T18:22:57.672Z,52.90
2022-10-12T18:25:24.159Z,53.00
2022-10-12T18:27:50.620Z,53.00
2022-10-12T18:30:17.100Z,52.90
2022-10-12T18:32:43.578Z,53.00
2022-10-12T18:35:10.050Z,53.00
2022-10-12T18:37:36.515Z,53.10
2022-10-12T18:40:03.010Z,53.00
2022-10-12T18:42:29.472Z,53.00
2022-10-12T18:44:55.934Z,53.00
2022-10-12T18:47:24.478Z,53.00
2022-10-12T18:49:51.155Z,53.00
2022-10-12T18:52:17.871Z,53.10
2022-10-12T18:54:44.568Z,53.10
2022-10-12T18:57:11.042Z,53.10
2022-10-12T18:59:37.515Z,53.10
2022-10-12T19:02:03.991Z,53.10
2022-10-12T19:04:30.464Z,53.10
2022-10-12T19:06:57.942Z,53.20
2022-10-12T19:09:24.527Z,53.20
2022-10-12T19:11:50.991Z,53.10
2022-10-12T19:14:17.476Z,53.10
2022-10-12T19:16:43.948Z,53.10
2022-10-12T19:19:10.422Z,53.20
2022-10-12T19:21:36.903Z,53.20
2022-10-12T19:24:03.377Z,53.10
2022-10-12T19:26:29.856Z,53.20
2022-10-12T19:28:56.339Z,53.20
2022-10-12T19:31:22.831Z,53.20
2022-10-12T19:33:49.321Z,53.20
2022-10-12T19:36:15.795Z,53.20
2022-10-12T19:38:42.293Z,53.20
2022-10-12T19:41:08.765Z,53.20
2022-10-12T19:43:35.246Z,53.20
2022-10-12T19:46:01.729Z,53.40
2022-10-12T19:48:28.224Z,53.30
2022-10-12T19:50:54.714Z,53.40
2022-10-12T19:53:21.194Z,53.40
2022-10-12T19:55:47.650Z,53.30
2022-10-12T19:58:14.131Z,53.30
2022-10-12T20:00:40.667Z,53.40
2022-10-12T20:03:07.171Z,53.30
2022-10-12T20:05:33.651Z,53.30
2022-10-12T20:08:00.106Z,53.40
2022-10-12T20:10:26.581Z,53.40
2022-10-12T20:12:53.046Z,53.30
2022-10-12T20:15:19.509Z,53.30
2022-10-12T20:17:45.996Z,53.30
2022-10-12T20:20:12.476Z,53.40
2022-10-12T20:22:38.958Z,53.40
2022-10-12T20:25:09.357Z,53.30
2022-10-12T20:27:36.349Z,53.40
2022-10-12T20:30:02.835Z,53.40
2022-10-12T20:32:29.305Z,53.40
2022-10-12T20:34:55.778Z,53.50
2022-10-12T20:37:22.259Z,53.40
2022-10-12T20:39:48.714Z,53.50
2022-10-12T20:42:19.205Z,53.50
2022-10-12T20:44:47.899Z,53.40
2022-10-12T20:47:14.362Z,53.50
2022-10-12T20:49:40.923Z,53.50
2022-10-12T20:52:07.386Z,53.40
2022-10-12T20:54:33.874Z,53.50
2022-10-12T20:57:00.342Z,53.50
2022-10-12T20:59:26.827Z,53.40
2022-10-12T21:01:53.301Z,53.40
2022-10-12T21:04:19.795Z,53.50
2022-10-12T21:06:46.283Z,53.50
2022-10-12T21:09:12.774Z,53.40
2022-10-12T21:11:39.252Z,53.40
2022-10-12T21:14:05.755Z,53.50
2022-10-12T21:16:32.236Z,53.60
2022-10-12T21:18:58.747Z,54.20
2022-10-12T21:21:25.225Z,53.50
2022-10-12T21:23:51.702Z,53.40
2022-10-12T21:26:18.178Z,53.60
2022-10-12T21:28:44.801Z,53.60
2022-10-12T21:31:11.300Z,53.60
2022-10-12T21:33:37.786Z,53.50
2022-10-12T21:36:04.252Z,53.50
2022-10-12T21:38:30.717Z,53.60
2022-10-12T21:40:57.189Z,53.70
2022-10-12T21:43:23.652Z,53.60
2022-10-12T21:45:50.114Z,53.50
2022-10-12T21:48:16.583Z,53.50
2022-10-12T21:50:43.062Z,53.50
2022-10-12T21:53:09.536Z,53.60
2022-10-12T21:55:36.023Z,53.60
2022-10-12T21:58:02.536Z,53.60
2022-10-12T22:00:29.048Z,53.60
2022-10-12T22:02:55.558Z,53.70
2022-10-12T22:05:22.037Z,53.60
2022-10-12T22:07:48.504Z,53.70
2022-10-12T22:10:14.963Z,53.70
2022-10-12T22:12:41.429Z,53.70
2022-10-12T22:15:07.897Z,53.60
2022-10-12T22:17:34.359Z,53.70
2022-10-12T22:20:00.840Z,53.70
2022-10-12T22:22:27.302Z,53.70
2022-10-12T22:24:53.788Z,53.60
2022-10-12T22:27:20.280Z,53.70
2022-10-12T22:29:46.761Z,53.80
2022-10-12T22:32:13.225Z,53.70
2022-10-12T22:34:39.702Z,53.70
2022-10-12T22:37:06.169Z,53.70
2022-10-12T22:39:32.658Z,53.60
2022-10-12T22:41:59.143Z,53.70
2022-10-12T22:44:25.634Z,53.70
2022-10-12T22:46:52.101Z,53.70
2022-10-12T22:49:18.599Z,53.70
2022-10-12T22:51:45.073Z,53.70
2022-10-12T22:54:11.575Z,53.70
2022-10-12T22:56:38.051Z,53.70
2022-10-12T22:59:04.729Z,53.70
2022-10-12T23:01:31.201Z,53.70
2022-10-12T23:03:57.692Z,53.70
2022-10-12T23:06:24.142Z,53.70
2022-10-12T23:08:50.629Z,53.70
2022-10-12T23:11:17.104Z,53.70
2022-10-12T23:13:43.593Z,53.80
2022-10-12T23:16:10.071Z,53.70
2022-10-12T23:18:36.572Z,53.80
2022-10-12T23:21:03.041Z,53.70
2022-10-12T23:23:29.510Z,53.80
2022-10-12T23:25:55.972Z,53.80
2022-10-12T23:28:22.458Z,53.80
2022-10-12T23:30:48.974Z,53.70
2022-10-12T23:33:15.436Z,53.70
2022-10-12T23:35:41.915Z,53.90
2022-10-12T23:38:08.345Z,53.90
2022-10-12T23:40:34.816Z,53.90
2022-10-12T23:43:01.295Z,53.80
2022-10-12T23:45:27.794Z,53.90
2022-10-12T23:47:54.251Z,53.90
2022-10-12T23:50:20.735Z,53.80
2022-10-12T23:52:47.208Z,53.80
2022-10-12T23:55:13.716Z,53.80
2022-10-12T23:57:47.165Z,53.70
